Time;durP1;ratioP1;P1;durP2;ratioP2;P2;SDS_P1;SDS_P2;PMS_P1;PMS_P2;Temp;Humidity;BMP_temperature;BMP_pressure;BME280_temperature;BME280_humidity;BME280_pressure;Samples;Min_cycle;Max_cycle;Signal;HPM_P1;HPM_P2
2021/08/24 00:00:24;;;;;;;6.30;4.12;;;;;;;14.85;83.62;100360.25;1993681;89;29515;-65
2021/08/24 00:03:29;;;;;;;5.67;4.55;;;;;;;14.82;84.25;100355.05;1994802;87;27704;-64
2021/08/24 00:06:30;;;;;;;4.95;4.42;;;;;;;14.79;83.53;100372.31;1994989;89;33160;-66
2021/08/24 00:09:34;;;;;;;7.78;4.87;;;;;;;14.76;84.10;100364.42;1975419;88;30134;-65
2021/08/24 00:12:36;;;;;;;5.87;4.10;;;;;;;14.73;83.82;100356.52;1961902;90;28285;-65
2021/08/24 00:15:39;;;;;;;6.70;4.87;;;;;;;14.70;83.91;100361.65;1961685;90;29920;-65
2021/08/24 00:18:41;;;;;;;8.68;4.92;;;;;;;14.68;83.73;100366.74;1972024;89;31986;-64
2021/08/24 00:21:43;;;;;;;4.53;3.90;;;;;;;14.65;83.63;100362.86;1994977;88;33121;-64
2021/08/24 00:24:44;;;;;;;4.30;3.90;;;;;;;14.59;83.77;100356.05;1994861;89;30222;-66
2021/08/24 00:27:46;;;;;;;5.30;4.08;;;;;;;14.57;83.99;100359.32;1994953;88;27725;-66
2021/08/24 00:30:48;;;;;;;5.80;3.75;;;;;;;14.54;83.90;100364.44;1994921;88;29641;-65
2021/08/24 00:33:50;;;;;;;4.17;3.77;;;;;;;14.53;84.11;100361.86;1986909;89;31137;-67
2021/08/24 00:36:52;;;;;;;6.67;4.12;;;;;;;14.52;84.04;100362.33;1962008;89;32952;-64
2021/08/24 00:39:53;;;;;;;4.80;4.20;;;;;;;14.53;84.25;100365.91;1979287;89;29322;-64
2021/08/24 00:42:56;;;;;;;3.77;3.42;;;;;;;14.51;84.17;100356.55;1994940;88;27748;-66
2021/08/24 00:46:23;;;;;;;4.15;3.75;;;;;;;14.50;84.37;100348.08;1992142;88;27660;-65
2021/08/24 00:49:27;;;;;;;6.55;3.45;;;;;;;14.51;84.67;100357.05;1937976;90;32448;-65
2021/08/24 00:52:29;;;;;;;6.03;2.97;;;;;;;14.48;84.71;100359.94;1920170;91;33073;-65
2021/08/24 00:55:32;;;;;;;7.78;4.30;;;;;;;14.47;84.65;100362.25;1919585;92;29341;-64
2021/08/24 00:58:35;;;;;;;5.28;3.92;;;;;;;14.45;85.04;100355.63;1919757;92;27718;-65
2021/08/24 01:01:36;;;;;;;7.22;4.85;;;;;;;14.44;85.00;100356.09;1930184;90;28886;-64
2021/08/24 01:04:39;;;;;;;7.97;4.75;;;;;;;14.43;85.05;100359.75;1950861;90;31075;-70
2021/08/24 01:07:55;;;;;;;5.58;4.53;;;;;;;14.43;85.01;100360.24;1930641;90;33076;-66
2021/08/24 01:11:18;;;;;;;;;;;;;;;14.43;84.87;100359.75;1952773;90;30145;-65
2021/08/24 01:15:05;;;;;;;5.25;4.72;;;;;;;14.43;85.40;100361.09;1948682;90;27677;-67
2021/08/24 01:18:14;;;;;;;6.03;5.33;;;;;;;14.42;85.70;100376.03;1921145;92;28642;-66
2021/08/24 01:21:56;;;;;;;6.17;4.65;;;;;;;14.40;85.41;100370.72;1928521;90;31200;-65
2021/08/24 01:25:06;;;;;;;6.25;5.33;;;;;;;14.39;85.31;100362.28;1957063;89;33803;-64
2021/08/24 01:28:48;;;;;;;6.90;4.85;;;;;;;14.41;85.36;100381.03;1995067;88;30114;-64
2021/08/24 01:32:33;;;;;;;9.33;5.62;;;;;;;14.42;85.89;100370.14;1987273;88;27753;-63
2021/08/24 01:36:17;;;;;;;7.17;6.30;;;;;;;14.42;85.53;100375.53;1961565;88;28730;-67
2021/08/24 01:39:33;;;;;;;6.70;5.70;;;;;;;14.44;85.76;100379.50;1961970;90;31915;-66
2021/08/24 01:42:35;;;;;;;7.35;6.60;;;;;;;14.44;86.58;100381.70;1973975;88;33232;-66
2021/08/24 01:45:49;;;;;;;7.83;6.87;;;;;;;14.43;86.68;100386.70;1994662;89;29784;-67
2021/08/24 01:48:53;;;;;;;8.50;7.22;;;;;;;14.44;87.15;100395.67;1994987;88;27760;-66
2021/08/24 01:51:58;;;;;;;7.55;6.75;;;;;;;14.46;86.50;100394.20;1993685;88;28829;-65
2021/08/24 01:55:09;;;;;;;12.03;8.20;;;;;;;14.44;86.65;100384.39;1961872;89;31035;-64
2021/08/24 01:58:19;;;;;;;8.38;7.53;;;;;;;14.43;86.68;100398.83;1961914;88;33779;-65
2021/08/24 02:01:24;;;;;;;9.53;7.70;;;;;;;14.42;86.88;100398.44;1962069;90;29375;-65
2021/08/24 02:04:42;;;;;;;9.50;7.80;;;;;;;14.43;86.91;100397.48;1989929;89;27708;-64
2021/08/24 02:07:45;;;;;;;10.53;7.15;;;;;;;14.43;86.78;100397.48;1995031;89;29763;-64
2021/08/24 02:10:50;;;;;;;15.80;8.48;;;;;;;14.44;87.67;100405.10;1994798;88;31043;-64
2021/08/24 02:13:54;;;;;;;10.30;8.35;;;;;;;14.46;87.26;100406.34;1994744;89;33010;-64
2021/08/24 02:16:59;;;;;;;9.85;8.85;;;;;;;14.44;87.57;100411.34;1994634;88;29395;-64
2021/08/24 02:20:09;;;;;;;10.50;7.70;;;;;;;14.47;87.34;100416.16;1958801;89;32242;-63
2021/08/24 02:23:16;;;;;;;10.20;7.60;;;;;;;14.46;88.08;100421.16;1962340;89;29220;-64
2021/08/24 02:26:19;;;;;;;8.68;7.72;;;;;;;14.45;88.21;100423.01;1961989;89;31055;-64
2021/08/24 02:29:20;;;;;;;10.08;8.30;;;;;;;14.44;87.67;100432.05;1961817;89;33778;-65
2021/08/24 02:32:28;;;;;;;8.95;7.25;;;;;;;14.45;87.96;100432.44;1961837;89;30201;-65
2021/08/24 02:35:47;;;;;;;8.73;7.58;;;;;;;14.46;87.91;100436.87;1961919;88;28242;-65
2021/08/24 02:39:05;;;;;;;8.28;7.45;;;;;;;14.48;87.78;100438.11;1961953;89;28245;-64
2021/08/24 02:42:57;;;;;;;8.73;7.67;;;;;;;14.48;88.32;100465.06;1986369;89;31212;-66
2021/08/24 02:46:09;;;;;;;7.62;6.55;;;;;;;14.44;88.03;100455.82;1994863;88;32998;-64
2021/08/24 02:49:18;;;;;;;6.00;5.40;;;;;;;14.42;88.33;100455.05;1995014;88;30108;-66
2021/08/24 02:52:20;;;;;;;6.90;5.87;;;;;;;14.40;88.78;100458.31;1976589;87;27770;-65
2021/08/24 02:55:22;;;;;;;7.95;5.17;;;;;;;14.38;88.48;100453.53;1962085;90;28679;-66
2021/08/24 02:58:24;;;;;;;7.87;4.78;;;;;;;14.38;88.49;100466.12;1962078;90;31860;-65
2021/08/24 03:01:26;;;;;;;5.33;4.83;;;;;;;14.38;88.62;100469.70;1976982;89;34087;-68
2021/08/24 03:04:28;;;;;;;5.95;5.37;;;;;;;14.37;88.54;100466.63;1994921;88;30128;-66
2021/08/24 03:07:33;;;;;;;7.53;5.37;;;;;;;14.36;88.34;100465.35;1995019;88;27731;-66
2021/08/24 03:10:35;;;;;;;;;;;;;;;14.36;88.38;100477.02;1991975;88;29699;-65
2021/08/24 03:13:48;;;;;;;6.70;5.35;;;;;;;14.35;88.55;100483.83;1961852;89;31884;-68
2021/08/24 03:16:58;;;;;;;7.33;6.25;;;;;;;14.33;88.57;100485.29;1956868;89;33019;-63
2021/08/24 03:20:04;;;;;;;6.03;5.30;;;;;;;14.32;88.50;100484.91;1961969;89;29343;-67
2021/08/24 03:23:07;;;;;;;7.60;6.33;;;;;;;14.30;88.62;100485.47;1962075;90;27652;-65
2021/08/24 03:26:11;;;;;;;9.05;6.75;;;;;;;14.32;88.47;100490.75;1972909;89;28953;-64
2021/08/24 03:29:21;;;;;;;12.58;6.67;;;;;;;14.33;88.42;100492.48;1995186;89;31041;-64
2021/08/24 03:32:23;;;;;;;7.37;6.35;;;;;;;14.32;88.32;100500.19;1994753;89;33023;-65
2021/08/24 03:35:25;;;;;;;8.35;6.65;;;;;;;14.32;88.64;100506.46;1995125;88;29345;-61
2021/08/24 03:38:27;;;;;;;12.25;7.20;;;;;;;14.30;88.56;100504.34;1984237;89;27800;-66
2021/08/24 03:41:29;;;;;;;8.50;7.00;;;;;;;14.28;88.35;100504.91;1962094;89;29478;-66
2021/08/24 03:44:30;;;;;;;21.60;9.10;;;;;;;14.25;88.96;100505.09;1961916;89;32003;-68
2021/08/24 03:47:33;;;;;;;17.52;8.35;;;;;;;14.19;88.82;100508.19;1961934;89;33763;-66
2021/08/24 03:50:35;;;;;;;12.55;8.40;;;;;;;14.15;89.21;100508.83;1981698;89;29345;-68
2021/08/24 03:53:37;;;;;;;8.68;7.78;;;;;;;14.12;89.09;100511.25;1983830;89;27713;-66
2021/08/24 03:56:42;;;;;;;14.40;7.78;;;;;;;14.08;89.32;100520.47;1981154;88;28635;-66
2021/08/24 03:59:44;;;;;;;9.38;7.80;;;;;;;14.05;89.27;100517.98;1961962;89;31083;-69
2021/08/24 04:02:45;;;;;;;10.32;8.28;;;;;;;14.05;89.67;100523.38;1962016;89;33061;-65
2021/08/24 04:05:47;;;;;;;12.05;7.53;;;;;;;14.02;89.63;100526.25;1967370;89;30092;-65
2021/08/24 04:08:49;;;;;;;11.70;8.15;;;;;;;14.01;89.73;100538.45;1993145;88;27686;-66
2021/08/24 04:11:51;;;;;;;10.68;9.55;;;;;;;13.98;89.75;100539.51;1995202;88;28821;-68
2021/08/24 04:14:52;;;;;;;13.68;8.95;;;;;;;13.97;90.05;100547.20;1994832;88;31872;-65
2021/08/24 04:17:54;;;;;;;12.73;8.13;;;;;;;13.94;90.16;100539.30;1966755;89;33006;-64
2021/08/24 04:20:56;;;;;;;10.30;8.65;;;;;;;13.93;90.25;100553.26;1962305;89;29524;-70
2021/08/24 04:23:58;;;;;;;9.60;7.75;;;;;;;13.92;90.60;100557.38;1964671;89;27906;-63
2021/08/24 04:27:00;;;;;;;12.28;8.45;;;;;;;13.91;90.61;100567.29;1994986;88;28661;-63
2021/08/24 04:30:03;;;;;;;8.45;7.55;;;;;;;13.90;90.41;100568.74;1994672;89;30528;-63
2021/08/24 04:33:05;;;;;;;13.62;8.35;;;;;;;13.89;90.72;100566.52;1971575;89;32509;-63
2021/08/24 04:36:07;;;;;;;10.15;8.03;;;;;;;13.89;90.52;100582.67;1962018;89;30147;-64
2021/08/24 04:39:09;;;;;;;8.63;7.25;;;;;;;13.88;90.65;100589.51;1962669;90;27665;-63
2021/08/24 04:42:11;;;;;;;8.93;7.65;;;;;;;13.88;90.59;100602.48;1962122;90;29497;-66
2021/08/24 04:45:13;;;;;;;11.40;7.80;;;;;;;13.87;90.56;100603.93;1982226;89;31811;-64
2021/08/24 04:48:15;;;;;;;11.40;8.63;;;;;;;13.86;90.68;100605.73;1994955;89;32968;-64
2021/08/24 04:51:17;;;;;;;12.70;8.68;;;;;;;13.88;90.65;100611.91;1995045;88;29390;-64
2021/08/24 04:54:19;;;;;;;10.10;8.38;;;;;;;13.86;90.77;100616.52;1994510;89;27653;-66
2021/08/24 04:57:21;;;;;;;8.93;8.03;;;;;;;13.87;90.93;100622.78;1994969;88;29667;-69
2021/08/24 05:00:22;;;;;;;11.10;8.98;;;;;;;13.86;90.94;100619.20;1995090;88;31025;-67
2021/08/24 05:03:24;;;;;;;9.65;8.70;;;;;;;13.90;91.00;100623.95;1977240;88;32965;-63
2021/08/24 05:06:26;;;;;;;11.97;8.50;;;;;;;13.92;90.86;100626.05;1962177;90;29415;-62
2021/08/24 05:09:29;;;;;;;9.60;7.67;;;;;;;13.90;90.80;100626.65;1962084;89;27724;-61
2021/08/24 05:12:31;;;;;;;9.53;7.85;;;;;;;13.89;90.73;100629.80;1964075;89;28677;-61
2021/08/24 05:15:33;;;;;;;10.53;8.30;;;;;;;13.89;90.63;100637.03;1961659;89;32301;-63
2021/08/24 05:18:36;;;;;;;10.65;8.23;;;;;;;13.88;90.52;100633.95;1961722;90;32982;-62
2021/08/24 05:21:38;;;;;;;9.95;7.80;;;;;;;13.88;90.57;100636.14;1984370;89;30293;-62
2021/08/24 05:24:40;;;;;;;11.18;7.62;;;;;;;13.90;90.70;100649.05;1962329;90;27633;-61
2021/08/24 05:27:42;;;;;;;12.15;8.93;;;;;;;13.92;90.51;100651.18;1961789;89;30081;-62
2021/08/24 05:30:43;;;;;;;8.35;7.42;;;;;;;13.96;90.48;100658.59;1970156;89;31876;-61
2021/08/24 05:33:46;;;;;;;9.53;7.50;;;;;;;13.96;90.35;100662.63;1994694;88;34351;-60
2021/08/24 05:36:47;;;;;;;8.70;7.42;;;;;;;14.01;90.40;100666.40;1995105;89;29789;-66
2021/08/24 05:39:49;;;;;;;8.05;7.25;;;;;;;14.03;90.27;100664.03;1994938;88;27685;-61
2021/08/24 05:42:51;;;;;;;7.83;7.00;;;;;;;14.05;90.27;100670.20;1967249;89;29998;-61
2021/08/24 05:46:01;;;;;;;8.80;7.47;;;;;;;14.07;90.17;100676.83;1961707;90;32269;-61
2021/08/24 05:49:05;;;;;;;9.98;7.65;;;;;;;14.09;90.10;100677.61;1962324;89;33012;-62
2021/08/24 05:52:09;;;;;;;15.03;7.95;;;;;;;14.11;90.05;100684.64;1977393;89;30157;-61
2021/08/24 05:55:11;;;;;;;10.65;9.55;;;;;;;14.17;90.09;100687.94;1995109;88;27670;-60
2021/08/24 05:58:13;;;;;;;9.83;7.20;;;;;;;14.21;90.02;100696.23;1977999;88;29855;-61
2021/08/24 06:01:27;;;;;;;9.40;7.33;;;;;;;14.23;89.94;100699.72;1974322;89;32284;-62
2021/08/24 06:04:29;;;;;;;11.45;6.95;;;;;;;14.25;89.86;100713.94;1994780;89;34341;-61
2021/08/24 06:07:31;;;;;;;8.75;7.70;;;;;;;14.25;89.61;100709.90;1994714;89;30248;-61
2021/08/24 06:10:38;;;;;;;11.95;7.97;;;;;;;14.26;89.69;100717.03;1994738;88;27649;-62
2021/08/24 06:13:39;;;;;;;9.08;7.17;;;;;;;14.30;89.76;100727.17;1953552;89;29067;-61
2021/08/24 06:16:41;;;;;;;8.30;6.97;;;;;;;14.37;89.87;100728.53;1961728;89;30798;-61
2021/08/24 06:19:43;;;;;;;8.35;7.30;;;;;;;14.39;89.54;100731.55;1961738;89;34218;-63
2021/08/24 06:22:45;;;;;;;11.48;7.28;;;;;;;14.41;89.46;100733.64;1982533;89;30321;-61
2021/08/24 06:25:47;;;;;;;8.25;6.42;;;;;;;14.48;89.58;100745.42;1995195;88;27690;-61
2021/08/24 06:28:49;;;;;;;10.85;7.80;;;;;;;14.51;89.44;100747.45;1994977;88;30031;-62
2021/08/24 06:31:53;;;;;;;8.03;6.47;;;;;;;14.55;89.26;100746.81;1988309;88;31390;-61
2021/08/24 06:34:55;;;;;;;9.73;6.70;;;;;;;14.57;89.27;100754.30;1961959;89;33933;-62
2021/08/24 06:37:57;;;;;;;12.10;7.65;;;;;;;14.66;89.46;100760.52;1961936;90;29529;-62
2021/08/24 06:41:01;;;;;;;9.98;7.12;;;;;;;14.58;89.11;100748.84;1961956;89;28293;-63
2021/08/24 06:44:06;;;;;;;7.97;6.50;;;;;;;14.58;89.11;100748.84;1989818;89;28650;-62
2021/08/24 06:47:08;;;;;;;9.15;6.65;;;;;;;14.77;89.15;100768.47;1995063;88;31209;-63
2021/08/24 06:50:11;;;;;;;8.25;6.25;;;;;;;14.82;89.15;100778.02;1994764;88;33443;-62
2021/08/24 06:53:13;;;;;;;7.42;6.70;;;;;;;14.81;88.81;100778.12;1994927;88;29324;-62
2021/08/24 06:56:15;;;;;;;9.40;6.05;;;;;;;14.80;88.47;100788.05;1995254;88;27775;-63
2021/08/24 06:59:17;;;;;;;11.22;6.47;;;;;;;14.75;88.44;100794.20;1966351;89;28842;-61
2021/08/24 07:02:19;;;;;;;8.70;6.10;;;;;;;14.72;88.31;100789.86;1961913;89;31899;-62
2021/08/24 07:05:25;;;;;;;8.23;6.45;;;;;;;14.75;88.70;100790.15;1961799;90;34263;-62
2021/08/24 07:08:27;;;;;;;8.28;6.85;;;;;;;14.74;88.44;100796.01;1979615;89;29343;-62
2021/08/24 07:11:30;;;;;;;7.87;7.03;;;;;;;14.78;88.65;100798.06;1995075;89;27676;-61
2021/08/24 07:14:32;;;;;;;6.37;5.78;;;;;;;14.83;88.42;100791.89;1994976;89;29071;-61
2021/08/24 07:17:35;;;;;;;9.20;7.00;;;;;;;14.85;88.19;100801.27;1987871;89;31448;-61
2021/08/24 07:20:37;;;;;;;9.13;7.33;;;;;;;14.88;88.47;100803.78;1962051;90;33064;-63
2021/08/24 07:23:39;;;;;;;7.35;5.62;;;;;;;14.94;88.47;100810.64;1961697;89;30199;-63
2021/08/24 07:26:41;;;;;;;8.38;6.20;;;;;;;14.94;88.26;100806.09;1962140;89;27684;-61
2021/08/24 07:29:43;;;;;;;9.23;6.30;;;;;;;14.94;88.21;100811.98;1961923;89;29904;-62
2021/08/24 07:32:45;;;;;;;8.70;6.42;;;;;;;14.92;88.02;100820.65;1968518;89;31764;-61
2021/08/24 07:35:47;;;;;;;7.83;6.03;;;;;;;14.96;88.24;100822.20;1994797;88;33634;-62
2021/08/24 07:38:49;;;;;;;6.62;5.58;;;;;;;14.98;88.31;100827.89;1995046;88;29326;-65
2021/08/24 07:41:52;;;;;;;7.15;5.83;;;;;;;14.96;87.87;100837.05;1995146;88;28234;-62
2021/08/24 07:44:54;;;;;;;7.78;5.53;;;;;;;14.86;87.65;100839.42;1994456;88;29473;-62
2021/08/24 07:47:56;;;;;;;6.42;4.90;;;;;;;14.82;87.59;100845.95;1995013;88;31093;-62
2021/08/24 07:50:58;;;;;;;9.63;5.70;;;;;;;14.76;87.54;100853.03;1994987;88;33020;-61
2021/08/24 07:54:01;;;;;;;8.68;5.25;;;;;;;14.71;87.74;100858.24;1994825;89;29427;-64
2021/08/24 07:57:04;;;;;;;8.53;4.80;;;;;;;14.71;87.84;100858.24;1967437;88;27706;-61
2021/08/24 08:00:08;;;;;;;6.72;4.60;;;;;;;14.70;87.53;100858.31;1962542;90;29404;-63
2021/08/24 08:03:12;;;;;;;6.12;4.47;;;;;;;14.70;87.72;100868.64;1962128;90;31864;-61
2021/08/24 08:06:15;;;;;;;7.70;4.40;;;;;;;14.67;87.31;100870.59;1979967;89;33065;-61
2021/08/24 08:09:20;;;;;;;9.13;4.70;;;;;;;14.65;87.63;100868.45;1994710;88;30556;-63
2021/08/24 08:12:23;;;;;;;5.60;4.07;;;;;;;14.76;87.66;100874.15;1995579;88;27691;-61
2021/08/24 08:15:26;;;;;;;7.53;5.25;;;;;;;14.76;87.66;100874.15;1994969;88;28658;-65
2021/08/24 08:18:28;;;;;;;8.63;4.87;;;;;;;14.84;87.58;100881.30;1994580;89;31923;-61
2021/08/24 08:21:31;;;;;;;12.65;5.25;;;;;;;14.92;88.03;100888.95;1993048;88;33070;-61
2021/08/24 08:24:34;;;;;;;6.55;4.90;;;;;;;15.00;87.61;100888.49;1963157;89;29343;-61
2021/08/24 08:27:37;;;;;;;8.35;5.35;;;;;;;15.09;87.63;100889.31;1962093;89;28176;-60
2021/08/24 08:30:42;;;;;;;8.95;5.97;;;;;;;15.29;88.29;100894.87;1962034;89;29486;-61
2021/08/24 08:33:44;;;;;;;10.80;5.62;;;;;;;15.45;87.92;100897.52;1962313;89;31036;-60
2021/08/24 08:36:48;;;;;;;8.23;5.37;;;;;;;15.58;87.46;100900.82;1962061;90;33354;-66
2021/08/24 08:39:51;;;;;;;9.57;6.53;;;;;;;15.65;86.54;100902.16;1962338;89;29344;-61
2021/08/24 08:43:10;;;;;;;13.45;5.87;;;;;;;15.90;86.31;100897.49;1962444;89;27709;-61
2021/08/24 08:46:49;;;;;;;10.00;5.42;;;;;;;15.90;86.31;100897.49;1949100;91;28653;-67
2021/08/24 08:50:08;;;;;;;7.85;5.10;;;;;;;16.02;86.28;100901.27;1946464;91;31195;-62
2021/08/24 08:53:51;;;;;;;8.60;5.10;;;;;;;16.22;85.58;100916.22;1946298;91;33147;-68
2021/08/24 08:57:31;;;;;;;6.37;4.78;;;;;;;16.43;85.08;100913.11;1945572;91;29353;-62
2021/08/24 09:00:41;;;;;;;7.60;5.25;;;;;;;16.56;84.50;100924.01;1946395;91;27721;-64
2021/08/24 09:03:57;;;;;;;9.93;5.25;;;;;;;16.77;84.12;100921.73;1946489;90;28855;-62
2021/08/24 09:07:01;;;;;;;7.12;4.53;;;;;;;16.90;84.31;100926.32;1943402;91;31532;-63
2021/08/24 09:10:07;;;;;;;8.85;5.50;;;;;;;16.93;83.80;100928.83;1946493;91;32977;-64
2021/08/24 09:13:19;;;;;;;8.28;4.83;;;;;;;17.02;84.49;100930.97;1947875;91;29531;-66
2021/08/24 09:16:41;;;;;;;6.97;4.58;;;;;;;16.99;82.43;100930.67;1944659;91;27884;-62
2021/08/24 09:20:32;;;;;;;7.45;4.17;;;;;;;16.97;83.33;100938.52;1919203;91;29562;-62
2021/08/24 09:23:33;;;;;;;9.65;3.67;;;;;;;16.95;81.38;100946.76;1922109;92;31882;-62
2021/08/24 09:26:49;;;;;;;7.28;4.72;;;;;;;16.72;80.23;100948.20;1969925;90;33767;-62
2021/08/24 09:29:52;;;;;;;8.60;4.35;;;;;;;16.55;81.59;100948.82;1965573;88;29399;-61
2021/08/24 09:32:59;;;;;;;11.97;4.83;;;;;;;16.50;82.20;100949.63;1970120;90;27745;-62
2021/08/24 09:36:01;;;;;;;8.05;4.78;;;;;;;16.51;81.53;100954.53;1969697;89;28641;-64
2021/08/24 09:39:03;;;;;;;7.40;4.28;;;;;;;16.55;81.73;100955.58;1969921;90;31015;-68
2021/08/24 09:42:09;;;;;;;5.40;4.47;;;;;;;16.59;81.40;100946.81;1996580;88;33017;-62
2021/08/24 09:45:25;;;;;;;8.35;5.12;;;;;;;16.63;80.88;100948.82;2003151;87;29346;-63
2021/08/24 09:48:31;;;;;;;8.23;4.37;;;;;;;16.70;81.09;100954.23;2004031;87;27678;-63
2021/08/24 09:51:53;;;;;;;5.85;4.53;;;;;;;16.83;80.87;100952.45;2000448;87;28741;-62
2021/08/24 09:55:04;;;;;;;7.87;4.10;;;;;;;17.10;82.24;100938.08;2001891;87;31855;-63
2021/08/24 09:58:07;;;;;;;7.08;3.98;;;;;;;17.40;79.66;100960.50;2003318;87;32483;-62
2021/08/24 10:01:15;;;;;;;4.60;3.47;;;;;;;17.61;78.39;100959.50;2003253;87;29344;-63
2021/08/24 10:04:19;;;;;;;10.53;4.87;;;;;;;17.69;76.76;100967.99;2003067;87;27635;-62
2021/08/24 10:07:35;;;;;;;6.20;3.95;;;;;;;17.74;77.04;100962.24;2003268;87;28705;-62
2021/08/24 10:10:38;;;;;;;5.12;3.77;;;;;;;17.82;77.15;100968.48;1972367;88;30870;-69
2021/08/24 10:13:43;;;;;;;8.05;4.28;;;;;;;17.93;76.65;100963.17;1999999;88;33725;-67
2021/08/24 10:16:45;;;;;;;;;;;;;;;18.10;77.07;100965.22;1968415;89;29350;-63
2021/08/24 10:19:47;;;;;;;9.28;4.00;;;;;;;18.21;76.34;100965.30;1961975;90;27625;-63
2021/08/24 10:22:52;;;;;;;5.72;3.20;;;;;;;18.23;76.48;100966.07;1978527;89;28664;-62
2021/08/24 10:25:58;;;;;;;4.28;3.70;;;;;;;18.24;74.88;100973.23;1962312;89;31048;-61
2021/08/24 10:29:08;;;;;;;7.70;3.72;;;;;;;18.20;74.21;100966.31;1962039;89;32962;-62
2021/08/24 10:32:11;;;;;;;7.62;3.40;;;;;;;18.19;74.87;100960.00;1962082;89;30214;-62
2021/08/24 10:35:22;;;;;;;5.00;2.95;;;;;;;18.32;74.09;100964.55;1953319;90;28206;-63
2021/08/24 10:39:03;;;;;;;9.00;3.85;;;;;;;18.43;73.88;100970.56;1961791;89;28747;-62
2021/08/24 10:42:19;;;;;;;5.75;3.25;;;;;;;18.50;73.06;100967.29;1961963;89;31049;-62
2021/08/24 10:45:39;;;;;;;5.25;3.10;;;;;;;18.75;72.95;100966.87;1962096;89;32983;-62
2021/08/24 10:48:42;;;;;;;5.08;3.27;;;;;;;18.88;72.11;100968.16;1983670;89;29385;-63
2021/08/24 10:52:30;;;;;;;5.42;3.17;;;;;;;19.11;72.68;100975.13;1961983;89;27712;-62
2021/08/24 10:55:41;;;;;;;8.20;3.25;;;;;;;19.31;70.92;100972.25;1865529;95;29706;-62
2021/08/24 10:59:11;;;;;;;4.78;3.02;;;;;;;19.47;68.55;100977.88;1865640;95;31140;-62
2021/08/24 11:02:31;;;;;;;4.80;2.42;;;;;;;19.46;68.00;100982.45;1902342;92;33138;-61
2021/08/24 11:05:51;;;;;;;5.63;3.30;;;;;;;19.39;68.34;100980.70;1879375;93;44028;-64
2021/08/24 11:09:34;;;;;;;2.87;2.40;;;;;;;19.58;67.18;100983.38;1835055;96;27823;-61
2021/08/24 11:12:47;;;;;;;6.22;2.90;;;;;;;19.67;67.75;100988.09;1832542;96;30083;-61
2021/08/24 11:16:07;;;;;;;7.80;2.58;;;;;;;19.81;67.35;100987.03;1840252;93;31676;-63
2021/08/24 11:19:36;;;;;;;7.20;3.02;;;;;;;19.81;65.26;101001.09;1833380;95;33839;-65
2021/08/24 11:23:07;;;;;;;6.47;2.70;;;;;;;19.75;65.92;100995.65;1833629;97;30245;-64
2021/08/24 11:26:37;;;;;;;9.33;3.10;;;;;;;19.78;65.29;101006.29;1808544;98;27754;-63
2021/08/24 11:29:53;;;;;;;4.33;2.33;;;;;;;19.74;65.95;101004.79;1853021;94;28675;-61
2021/08/24 11:33:04;;;;;;;6.17;2.52;;;;;;;19.62;65.84;101010.67;1875788;94;31492;-62
2021/08/24 11:36:19;;;;;;;5.83;2.67;;;;;;;19.37;64.37;101012.55;1904149;93;32782;-62
2021/08/24 11:39:39;;;;;;;6.92;2.62;;;;;;;19.26;64.83;101010.64;1904469;93;30138;-62
2021/08/24 11:42:46;;;;;;;4.87;2.65;;;;;;;19.22;65.10;101013.20;1905062;92;27720;-61
2021/08/24 11:45:52;;;;;;;4.75;2.22;;;;;;;19.24;64.96;101003.60;1946875;89;28676;-61
2021/08/24 11:49:11;;;;;;;4.17;2.50;;;;;;;19.22;65.16;101005.06;1984151;89;31747;-61
2021/08/24 11:52:54;;;;;;;4.92;2.25;;;;;;;19.28;64.79;101014.12;1984259;89;32962;-61
2021/08/24 11:56:00;;;;;;;8.30;2.45;;;;;;;19.30;63.50;101019.92;1983950;88;29489;-62
2021/08/24 11:59:05;;;;;;;4.05;2.47;;;;;;;19.30;62.85;101023.50;1982684;89;27755;-61
2021/08/24 12:02:21;;;;;;;6.90;2.27;;;;;;;19.27;62.05;101022.39;1955123;90;28803;-62
2021/08/24 12:05:27;;;;;;;5.83;2.33;;;;;;;19.28;61.39;101019.55;1961945;89;30703;-64
2021/08/24 12:08:30;;;;;;;3.33;2.30;;;;;;;19.35;60.82;101014.52;1973155;89;33416;-62
2021/08/24 12:11:49;;;;;;;3.72;2.40;;;;;;;19.40;59.18;101025.92;1969199;89;29353;-62
2021/08/24 12:15:11;;;;;;;7.28;3.27;;;;;;;19.48;58.13;101020.37;1984216;89;27665;-62
2021/08/24 12:18:26;;;;;;;4.17;2.45;;;;;;;19.54;56.99;101022.64;1978791;88;29604;-62
2021/08/24 12:21:36;;;;;;;4.12;2.27;;;;;;;19.56;57.10;101025.60;1953340;90;31148;-61
2021/08/24 12:24:59;;;;;;;2.70;2.35;;;;;;;19.56;57.49;101026.96;1961118;88;33247;-62
2021/08/24 12:28:20;;;;;;;3.72;1.50;;;;;;;19.51;56.23;101028.30;1954985;89;29392;-75
2021/08/24 12:31:49;;;;;;;5.10;1.80;;;;;;;19.53;54.96;101033.13;1962080;90;27802;-72
2021/08/24 12:35:15;;;;;;;4.30;1.67;;;;;;;19.55;53.67;101038.81;1961756;89;28674;-79
2021/08/24 12:38:51;;;;;;;4.35;1.80;;;;;;;19.55;55.45;101027.94;1879941;92;31248;-79
2021/08/24 12:42:31;;;;;;;1.45;1.20;;;;;;;19.48;56.90;101013.58;1896769;92;33034;-79
2021/08/24 12:45:34;;;;;;;3.20;1.37;;;;;;;19.48;56.90;101013.58;1895359;93;30297;-73
2021/08/24 12:48:36;;;;;;;4.28;2.05;;;;;;;19.57;56.76;101030.56;1895445;93;27728;-73
2021/08/24 12:51:55;;;;;;;4.65;2.05;;;;;;;19.58;57.09;101037.73;1899549;92;28666;-79
2021/08/24 12:55:09;;;;;;;3.00;1.45;;;;;;;19.56;56.83;101041.06;1902206;93;32138;-76
2021/08/24 12:58:27;;;;;;;3.52;1.90;;;;;;;19.59;55.72;101038.11;1902474;93;33861;-74
2021/08/24 13:01:30;;;;;;;2.22;1.60;;;;;;;19.63;54.60;101032.80;1902616;92;29554;-75
2021/08/24 13:04:34;;;;;;;4.08;1.77;;;;;;;19.56;55.37;101040.55;1897150;92;27802;-77
2021/08/24 13:07:48;;;;;;;4.03;1.82;;;;;;;19.40;55.90;101030.47;1862730;95;28696;-74
2021/08/24 13:11:18;;;;;;;3.12;1.65;;;;;;;19.28;56.07;101026.81;1925317;92;31244;-74
2021/08/24 13:14:51;;;;;;;3.10;1.55;;;;;;;19.23;56.77;101030.39;1961588;90;32947;-77
2021/08/24 13:18:13;;;;;;;4.17;1.75;;;;;;;19.23;57.00;101030.39;1963041;89;30156;-78
2021/08/24 13:21:33;;;;;;;4.78;2.17;;;;;;;19.26;56.18;101030.16;1865580;95;27823;-75
2021/08/24 13:24:47;;;;;;;2.15;1.40;;;;;;;19.24;54.64;101028.91;1865759;95;28787;-74
2021/08/24 13:27:58;;;;;;;2.67;2.08;;;;;;;19.31;54.18;101035.25;1878195;92;32091;-76
2021/08/24 13:31:25;;;;;;;3.20;1.35;;;;;;;19.34;54.94;101020.08;1876945;93;32974;-74
2021/08/24 13:34:53;;;;;;;2.42;1.57;;;;;;;19.37;55.29;101020.70;1895514;93;30157;-74
2021/08/24 13:38:28;;;;;;;11.40;6.42;;;;;;;19.41;55.26;101028.12;1895948;93;27751;-62
2021/08/24 13:41:36;;;;;;;;;;;;;;;19.49;55.49;101026.19;1898023;93;28800;-62
2021/08/24 13:44:41;;;;;;;4.95;1.65;;;;;;;19.64;53.30;101020.09;1865660;95;31671;-62
2021/08/24 13:47:48;;;;;;;;;;;;;;;19.70;54.57;101012.32;1904755;93;32919;-63
2021/08/24 13:50:58;;;;;;;3.02;1.62;;;;;;;19.70;53.74;101013.68;1902173;92;29465;-64
2021/08/24 13:54:01;;;;;;;2.67;1.67;;;;;;;19.63;53.86;101024.64;1903152;93;27683;-68
2021/08/24 13:57:08;;;;;;;3.60;1.98;;;;;;;19.50;53.20;101030.16;1901747;90;28731;-62
2021/08/24 14:00:16;;;;;;;3.75;1.75;;;;;;;19.47;53.70;101033.11;1963312;89;32213;-69
2021/08/24 14:03:18;;;;;;;2.92;2.12;;;;;;;19.53;54.36;101027.70;1963639;89;33998;-62
2021/08/24 14:06:32;;;;;;;4.60;1.85;;;;;;;19.59;51.21;101026.73;1982336;89;28791;-70
2021/08/24 14:09:55;;;;;;;4.72;1.90;;;;;;;19.65;51.48;101026.75;1994793;89;27754;-68
2021/08/24 14:13:13;;;;;;;3.22;1.98;;;;;;;19.74;50.77;101023.82;1994555;87;28749;-71
2021/08/24 14:16:32;;;;;;;4.40;2.60;;;;;;;19.87;49.99;101029.22;1975572;88;31072;-72
2021/08/24 14:19:35;;;;;;;4.03;2.75;;;;;;;19.97;50.48;101027.50;1961366;88;34338;-61
2021/08/24 14:22:38;;;;;;;5.75;2.77;;;;;;;20.02;49.93;101036.18;1962130;89;30003;-61
2021/08/24 14:25:46;;;;;;;5.58;2.80;;;;;;;20.03;49.88;101032.48;1961843;89;27629;-62
2021/08/24 14:28:50;;;;;;;6.90;3.27;;;;;;;19.97;50.17;101032.09;1961775;89;29556;-61
2021/08/24 14:31:58;;;;;;;5.12;3.00;;;;;;;19.92;49.68;101032.45;1982850;89;31067;-61
2021/08/24 14:35:11;;;;;;;5.47;2.90;;;;;;;19.92;50.59;101033.81;1994926;88;32969;-65
2021/08/24 14:38:31;;;;;;;6.45;2.40;;;;;;;19.94;50.76;101035.05;1994953;88;29382;-62